Lyons, CO

7:05 PM MST on November 25, 2014 (GMT -0700)
UDFCD | Change Station
CLOSE
Current Station
Personal Weather Station
Location: Lyons, CO
Elevation: 6500 ft
Nearby Weather Stations

Elev 6500 ft 40.22 °N, 105.37 °W | Updated 2 days ago

Snow
Snow
35 °F
Feels Like 20 °F
N
40
Wind Variable Wind from West
Gusts 74 mph

Today
High -- | Low -- °F
--% Chance of Precip.
Yesterday
High -- | Low -- °F
Precip. -- in
6:58 AM 4:38 PM
Waxing Crescent, 15% visible
Pressure 29.90 in
Visibility 10.0 miles
Clouds Scattered Clouds 8500 ft
Windchill 20 °F
Dew Point 17 °F
Humidity 46%
Rainfall -999.00 in
Snow Depth Not available.
UV 0 out of 12
Pollen .10 out of 12
Air Quality Not available.
Flu Activity Not available.
METAR KLMO 260155Z AUTO 09005KT 10SM SCT085 08/M06 A2990 RMK AO2 T00761056

More Conditions Fewer Conditions

Pressure 29.90 in
Visibility 10.0 miles
Clouds Scattered Clouds 8500 ft
Windchill 20 °F
Dew Point 17 °F
Humidity 46%
Rainfall -999.00 in
Snow Depth Not available.
UV 0 out of 12
Pollen .10 out of 12
Air Quality Not available.
Flu Activity Not available.
METAR KLMO 260155Z AUTO 09005KT 10SM SCT085 08/M06 A2990 RMK AO2 T00761056

More Conditions Fewer Conditions

Nowcast | as of 6:23 PM MST on November 25, 2014

West winds at 20 to 30 mph will continue in the foothills this afternoon...strongest in the foothills of Jefferson...Boulder and Larimer counties. Peak gusts to 60 mph can be expected in wind prone areas in the foothills. Drivers of high profile or light weight vehicles may wish to consider avoiding north-south roads in and near the foothills including the peak to peak Highway. Be alert for sudden strong crosswind gusts. There will also be areas of blowing snow in the higher foothills.

×

10-Day Weather Forecast

Almanac

Astronomy

Nov. 25, 2014 Rise Set
Actual Time
Civil Twilight
Nautical Twilight
Astronomical Twilight
Moon
Length of Visible Light
Length of Day
Tomorrow will be .
, % of the Moon is Illuminated

Today's Extremes

State Highs State Lows

Community

WunderPhotos

Upload Photos

1,773,642 photos uploaded!

WunderBlogs® & News

Nearby

Air Quality

  Air Quality AQ Index Pollutant
Not available.

Snow Depth

Station Depth Elevation

Earthquake Activity

City Distance Mag. Time & Date
Minimum magnitude displayed is 2.5.

Coastal Water Temperatures

Place Temperature

Nearby Weather Stations